PWSweather.com
Personal Weather Stations
Station Observations

OlomoucCZ

Lat: 49.5936202181, Lon: 17.2276005149

Elevation: 752

Station Type: Davis Vantage Pro 2 Activ

http://infopocasi-olomouc.cz

High Low Average
Temperature 39.7°F4.3°C 29.4°F-1.4°C 34.8°F1.6°C
Dew Point 35.6°F2.0°C 23.3°F-4.8°C 29.7°F-1.3°C
Winds 19.6 mph 31.5 kmh 2.3 mph 3.7 kmh 8.0 mph WNW12.9 kmh WNW
Wind Gusts 23.0 mph37.0 kmh 2.3 mph3.7 kmh 12.0 mph19.3 kmh
Humidity 91% 73% 81%
Pressure 29.88 in1011.9 mb 29.77 in1008.1 mb -
Precipitation 0.00 in0.0 mm - -
Hour Temp Dew Point Humidity Winds Wind Gusts Pressure Precip Precip Rate Daily Precip Total
12:00 AM 29.4°F-1.4°C 23.4°F-4.8°C 78% 9.2 mph WNW14.8 kmh WNW 13.8 mph22.2 kmh 29.77 in1008.1 mb - 0.01 in0.3 mm 0.01 in0.3 mm
12:30 AM 30.1°F-1.1°C 23.4°F-4.8°C 76% 13.8 mph WNW22.2 kmh WNW 21.9 mph35.2 kmh 29.77 in1008.1 mb - 0.01 in0.3 mm 0.02 in0.5 mm
01:00 AM 30.4°F-0.9°C 23.7°F-4.6°C 76% 8.1 mph NW13.0 kmh NW 12.7 mph20.4 kmh 29.78 in1008.5 mb - 0.00 in0.0 mm 0.02 in0.5 mm
01:30 AM 30.6°F-0.8°C 23.3°F-4.8°C 74% 10.4 mph WNW16.7 kmh WNW 18.4 mph29.6 kmh 29.78 in1008.5 mb - 0.00 in0.0 mm 0.02 in0.5 mm
02:00 AM 31.1°F-0.5°C 23.5°F-4.7°C 73% 13.8 mph WNW22.2 kmh WNW 19.6 mph31.5 kmh 29.79 in1008.8 mb - 0.00 in0.0 mm 0.02 in0.5 mm
02:30 AM 31.3°F-0.4°C 23.6°F-4.7°C 73% 10.4 mph NW16.7 kmh NW 11.5 mph18.5 kmh 29.79 in1008.8 mb - 0.00 in0.0 mm 0.02 in0.5 mm
03:00 AM 31.4°F-0.3°C 23.7°F-4.6°C 73% 11.5 mph NW18.5 kmh NW 12.7 mph20.4 kmh 29.79 in1008.8 mb - 0.00 in0.0 mm 0.02 in0.5 mm
03:30 AM 31.9°F-0.1°C 24.2°F-4.3°C 73% 11.5 mph WNW18.5 kmh WNW 21.9 mph35.2 kmh 29.79 in1008.8 mb - 0.00 in0.0 mm 0.00 in0.0 mm
04:00 AM 32.3°F0.2°C 24.6°F-4.1°C 73% 13.8 mph NW22.2 kmh NW 19.6 mph31.5 kmh 29.79 in1008.8 mb - 0.00 in0.0 mm 0.00 in0.0 mm
04:30 AM 32.2°F0.1°C 25.2°F-3.8°C 75% 9.2 mph NW14.8 kmh NW 8.1 mph13.0 kmh 29.79 in1008.8 mb - 0.00 in0.0 mm 0.00 in0.0 mm
05:00 AM 31.9°F-0.1°C 25.5°F-3.6°C 77% 10.4 mph WSW16.7 kmh WSW 11.5 mph18.5 kmh 29.80 in1009.1 mb - 0.00 in0.0 mm 0.00 in0.0 mm
05:30 AM 31.5°F-0.3°C 26.0°F-3.3°C 80% 8.1 mph WNW13.0 kmh WNW 11.5 mph18.5 kmh 29.80 in1009.1 mb - 0.00 in0.0 mm 0.00 in0.0 mm
06:00 AM 31.9°F-0.1°C 26.4°F-3.1°C 80% 12.7 mph WNW20.4 kmh WNW 15.0 mph24.1 kmh 29.81 in1009.5 mb - 0.00 in0.0 mm 0.00 in0.0 mm
06:30 AM 31.9°F-0.1°C 26.4°F-3.1°C 80% 6.9 mph WNW11.1 kmh WNW 12.7 mph20.4 kmh 29.81 in1009.5 mb - 0.00 in0.0 mm 0.00 in0.0 mm
07:00 AM 31.6°F-0.2°C 26.1°F-3.3°C 80% 6.9 mph WNW11.1 kmh WNW 11.5 mph18.5 kmh 29.82 in1009.8 mb - 0.00 in0.0 mm 0.00 in0.0 mm
07:30 AM 32.1°F0.1°C 27.3°F-2.6°C 82% 8.1 mph NW13.0 kmh NW 9.2 mph14.8 kmh 29.84 in1010.5 mb - 0.00 in0.0 mm 0.00 in0.0 mm
08:00 AM 32.4°F0.2°C 27.8°F-2.3°C 83% 8.1 mph WNW13.0 kmh WNW 10.4 mph16.7 kmh 29.85 in1010.8 mb - 0.00 in0.0 mm 0.00 in0.0 mm
08:30 AM 33.1°F0.6°C 28.8°F-1.8°C 84% 10.4 mph W16.7 kmh W 11.5 mph18.5 kmh 29.86 in1011.2 mb - 0.00 in0.0 mm 0.00 in0.0 mm
09:00 AM 33.0°F0.6°C 29.3°F-1.5°C 86% 4.6 mph NW7.4 kmh NW 9.2 mph14.8 kmh 29.87 in1011.5 mb - 0.00 in0.0 mm 0.00 in0.0 mm
09:30 AM 34.2°F1.2°C 29.8°F-1.2°C 84% 8.1 mph NW13.0 kmh NW 10.4 mph16.7 kmh 29.87 in1011.5 mb - 0.00 in0.0 mm 0.00 in0.0 mm
10:00 AM 33.2°F0.7°C 30.0°F-1.1°C 88% 4.6 mph WNW7.4 kmh WNW 9.2 mph14.8 kmh 29.88 in1011.9 mb - 0.00 in0.0 mm 0.00 in0.0 mm
10:30 AM 33.6°F0.9°C 31.0°F-0.6°C 90% 4.6 mph WNW7.4 kmh WNW 6.9 mph11.1 kmh 29.88 in1011.9 mb - 0.00 in0.0 mm 0.00 in0.0 mm
11:00 AM 33.9°F1.1°C 31.6°F-0.2°C 91% 5.8 mph WSW9.3 kmh WSW 6.9 mph11.1 kmh 29.87 in1011.5 mb - 0.00 in0.0 mm 0.00 in0.0 mm
11:30 AM 35.0°F1.7°C 32.1°F0.1°C 89% 8.1 mph NW13.0 kmh NW 17.3 mph27.8 kmh 29.86 in1011.2 mb - 0.00 in0.0 mm 0.00 in0.0 mm
12:00 PM 35.5°F1.9°C 31.7°F-0.2°C 86% 8.1 mph NNW13.0 kmh NNW 11.5 mph18.5 kmh 29.84 in1010.5 mb - 0.00 in0.0 mm 0.00 in0.0 mm
12:30 PM 36.9°F2.7°C 31.0°F-0.6°C 79% 13.8 mph W22.2 kmh W 16.1 mph25.9 kmh 29.83 in1010.2 mb - 0.00 in0.0 mm 0.00 in0.0 mm
01:00 PM 37.5°F3.1°C 30.6°F-0.8°C 76% 8.1 mph NW13.0 kmh NW 12.7 mph20.4 kmh 29.83 in1010.2 mb - 0.00 in0.0 mm 0.00 in0.0 mm
01:30 PM 37.5°F3.1°C 30.3°F-0.9°C 75% 15.0 mph W24.1 kmh W 23.0 mph37.0 kmh 29.82 in1009.8 mb - 0.00 in0.0 mm 0.00 in0.0 mm
02:00 PM 37.9°F3.3°C 30.0°F-1.1°C 73% 19.6 mph WNW31.5 kmh WNW 20.7 mph33.3 kmh 29.82 in1009.8 mb - 0.00 in0.0 mm 0.00 in0.0 mm
02:30 PM 37.9°F3.3°C 30.4°F-0.9°C 74% 11.5 mph WNW18.5 kmh WNW 19.6 mph31.5 kmh 29.82 in1009.8 mb - 0.00 in0.0 mm 0.00 in0.0 mm
03:00 PM 37.2°F2.9°C 31.0°F-0.6°C 78% 3.5 mph NW5.6 kmh NW 6.9 mph11.1 kmh 29.83 in1010.2 mb - 0.00 in0.0 mm 0.00 in0.0 mm
03:30 PM 36.5°F2.5°C 31.5°F-0.3°C 82% 3.5 mph WSW5.6 kmh WSW 3.5 mph5.6 kmh 29.83 in1010.2 mb - 0.00 in0.0 mm 0.00 in0.0 mm
04:00 PM 36.1°F2.3°C 31.7°F-0.2°C 84% 8.1 mph WSW13.0 kmh WSW 10.4 mph16.7 kmh 29.83 in1010.2 mb - 0.00 in0.0 mm 0.00 in0.0 mm
04:30 PM 36.1°F2.3°C 32.3°F0.2°C 86% 5.8 mph NW9.3 kmh NW 9.2 mph14.8 kmh 29.84 in1010.5 mb - 0.00 in0.0 mm 0.00 in0.0 mm
05:00 PM 36.1°F2.3°C 32.3°F0.2°C 86% 9.2 mph W14.8 kmh W 12.7 mph20.4 kmh 29.84 in1010.5 mb - 0.00 in0.0 mm 0.00 in0.0 mm
05:30 PM 36.2°F2.3°C 32.7°F0.4°C 87% 4.6 mph W7.4 kmh W 8.1 mph13.0 kmh 29.84 in1010.5 mb - 0.00 in0.0 mm 0.00 in0.0 mm
06:00 PM 36.2°F2.3°C 33.0°F0.6°C 88% 3.5 mph WNW5.6 kmh WNW 4.6 mph7.4 kmh 29.83 in1010.2 mb - 0.00 in0.0 mm 0.00 in0.0 mm
06:30 PM 36.6°F2.6°C 33.4°F0.8°C 88% 4.6 mph W7.4 kmh W 6.9 mph11.1 kmh 29.83 in1010.2 mb - 0.00 in0.0 mm 0.00 in0.0 mm
07:00 PM 37.0°F2.8°C 33.5°F0.8°C 87% 2.3 mph W3.7 kmh W 3.5 mph5.6 kmh 29.82 in1009.8 mb - 0.00 in0.0 mm 0.00 in0.0 mm
07:30 PM 37.6°F3.1°C 33.8°F1.0°C 86% 2.3 mph W3.7 kmh W 2.3 mph3.7 kmh 29.82 in1009.8 mb - 0.00 in0.0 mm 0.00 in0.0 mm
08:00 PM 38.4°F3.6°C 34.0°F1.1°C 84% 5.8 mph W9.3 kmh W 9.2 mph14.8 kmh 29.81 in1009.5 mb - 0.00 in0.0 mm 0.00 in0.0 mm
08:30 PM 38.6°F3.7°C 34.2°F1.2°C 84% 6.9 mph WSW11.1 kmh WSW 8.1 mph13.0 kmh 29.81 in1009.5 mb - 0.00 in0.0 mm 0.00 in0.0 mm
09:00 PM 38.8°F3.8°C 34.1°F1.2°C 83% 4.6 mph WSW7.4 kmh WSW 8.1 mph13.0 kmh 29.81 in1009.5 mb - 0.00 in0.0 mm 0.00 in0.0 mm
09:30 PM 39.0°F3.9°C 34.5°F1.4°C 84% 3.5 mph WSW5.6 kmh WSW 3.5 mph5.6 kmh 29.81 in1009.5 mb - 0.00 in0.0 mm 0.00 in0.0 mm
10:00 PM 39.6°F4.2°C 35.2°F1.8°C 84% 5.8 mph WSW9.3 kmh WSW 12.7 mph20.4 kmh 29.80 in1009.1 mb - 0.00 in0.0 mm 0.00 in0.0 mm
10:30 PM 39.6°F4.2°C 35.5°F1.9°C 85% 6.9 mph WNW11.1 kmh WNW 10.4 mph16.7 kmh 29.80 in1009.1 mb - 0.00 in0.0 mm 0.00 in0.0 mm
11:00 PM 39.7°F4.3°C 35.6°F2.0°C 85% 3.5 mph WNW5.6 kmh WNW 9.2 mph14.8 kmh 29.81 in1009.5 mb - 0.00 in0.0 mm 0.00 in0.0 mm
11:30 PM 39.7°F4.3°C 35.6°F2.0°C 85% 5.8 mph NW9.3 kmh NW 11.5 mph18.5 kmh 29.80 in1009.1 mb - 0.00 in0.0 mm 0.00 in0.0 mm